sensor_id;sensor_type;location;lat;lon;timestamp;P1;durP1;ratioP1;P2;durP2;ratioP2
6878;SDS011;3478;51.462;7.338;2023-06-22T00:00:19;6.30;;;5.73;;
6878;SDS011;3478;51.462;7.338;2023-06-22T00:05:21;6.00;;;5.70;;
6878;SDS011;3478;51.462;7.338;2023-06-22T00:10:23;7.60;;;6.90;;
6878;SDS011;3478;51.462;7.338;2023-06-22T00:15:27;7.27;;;6.53;;
6878;SDS011;3478;51.462;7.338;2023-06-22T00:20:29;7.43;;;6.17;;
6878;SDS011;3478;51.462;7.338;2023-06-22T00:25:30;6.40;;;5.97;;
6878;SDS011;3478;51.462;7.338;2023-06-22T00:30:34;6.67;;;6.17;;
6878;SDS011;3478;51.462;7.338;2023-06-22T00:35:36;6.70;;;6.20;;
6878;SDS011;3478;51.462;7.338;2023-06-22T00:40:41;6.60;;;6.10;;
6878;SDS011;3478;51.462;7.338;2023-06-22T00:45:45;7.13;;;6.60;;
6878;SDS011;3478;51.462;7.338;2023-06-22T00:50:47;5.90;;;5.43;;
6878;SDS011;3478;51.462;7.338;2023-06-22T00:55:50;7.40;;;6.50;;
6878;SDS011;3478;51.462;7.338;2023-06-22T01:00:54;6.23;;;5.53;;
6878;SDS011;3478;51.462;7.338;2023-06-22T01:05:56;6.87;;;6.20;;
6878;SDS011;3478;51.462;7.338;2023-06-22T01:11:05;9.60;;;7.70;;
6878;SDS011;3478;51.462;7.338;2023-06-22T01:16:14;8.00;;;7.40;;
6878;SDS011;3478;51.462;7.338;2023-06-22T01:21:20;8.63;;;7.93;;
6878;SDS011;3478;51.462;7.338;2023-06-22T01:26:25;7.03;;;6.53;;
6878;SDS011;3478;51.462;7.338;2023-06-22T01:31:37;8.80;;;7.97;;
6878;SDS011;3478;51.462;7.338;2023-06-22T01:36:41;9.37;;;8.10;;
6878;SDS011;3478;51.462;7.338;2023-06-22T01:41:43;7.73;;;7.23;;
6878;SDS011;3478;51.462;7.338;2023-06-22T01:46:47;8.20;;;7.50;;
6878;SDS011;3478;51.462;7.338;2023-06-22T01:51:50;9.50;;;8.60;;
6878;SDS011;3478;51.462;7.338;2023-06-22T01:56:54;9.53;;;8.63;;
6878;SDS011;3478;51.462;7.338;2023-06-22T02:02:00;8.40;;;7.70;;
6878;SDS011;3478;51.462;7.338;2023-06-22T02:07:08;8.70;;;7.90;;
6878;SDS011;3478;51.462;7.338;2023-06-22T02:12:14;9.70;;;8.83;;
6878;SDS011;3478;51.462;7.338;2023-06-22T02:17:19;9.30;;;8.40;;
6878;SDS011;3478;51.462;7.338;2023-06-22T02:22:22;10.30;;;9.27;;
6878;SDS011;3478;51.462;7.338;2023-06-22T02:27:24;9.40;;;8.50;;
6878;SDS011;3478;51.462;7.338;2023-06-22T02:32:27;11.00;;;9.90;;
6878;SDS011;3478;51.462;7.338;2023-06-22T02:37:29;10.13;;;9.03;;
6878;SDS011;3478;51.462;7.338;2023-06-22T02:42:31;9.53;;;8.70;;
6878;SDS011;3478;51.462;7.338;2023-06-22T02:47:34;9.40;;;8.47;;
6878;SDS011;3478;51.462;7.338;2023-06-22T02:52:36;9.00;;;8.30;;
6878;SDS011;3478;51.462;7.338;2023-06-22T02:57:39;9.90;;;8.93;;
6878;SDS011;3478;51.462;7.338;2023-06-22T03:02:45;11.40;;;9.43;;
6878;SDS011;3478;51.462;7.338;2023-06-22T03:07:48;11.27;;;10.23;;
6878;SDS011;3478;51.462;7.338;2023-06-22T03:12:49;10.93;;;9.97;;
6878;SDS011;3478;51.462;7.338;2023-06-22T03:17:53;11.20;;;10.10;;
6878;SDS011;3478;51.462;7.338;2023-06-22T03:22:55;16.87;;;13.60;;
6878;SDS011;3478;51.462;7.338;2023-06-22T03:27:57;12.83;;;11.63;;
6878;SDS011;3478;51.462;7.338;2023-06-22T03:33:00;16.23;;;12.80;;
6878;SDS011;3478;51.462;7.338;2023-06-22T03:38:02;12.23;;;10.93;;
6878;SDS011;3478;51.462;7.338;2023-06-22T03:43:04;14.57;;;11.90;;
6878;SDS011;3478;51.462;7.338;2023-06-22T03:48:07;13.13;;;11.93;;
6878;SDS011;3478;51.462;7.338;2023-06-22T03:53:09;12.27;;;11.17;;
6878;SDS011;3478;51.462;7.338;2023-06-22T03:58:11;13.00;;;11.77;;
6878;SDS011;3478;51.462;7.338;2023-06-22T04:03:15;12.23;;;11.03;;
6878;SDS011;3478;51.462;7.338;2023-06-22T04:08:18;13.97;;;12.80;;
6878;SDS011;3478;51.462;7.338;2023-06-22T04:13:20;14.03;;;12.70;;
6878;SDS011;3478;51.462;7.338;2023-06-22T04:18:23;15.80;;;13.57;;
6878;SDS011;3478;51.462;7.338;2023-06-22T04:23:25;17.03;;;14.17;;
6878;SDS011;3478;51.462;7.338;2023-06-22T04:28:27;14.90;;;13.37;;
6878;SDS011;3478;51.462;7.338;2023-06-22T04:33:31;15.43;;;12.87;;
6878;SDS011;3478;51.462;7.338;2023-06-22T04:38:32;16.67;;;15.07;;
6878;SDS011;3478;51.462;7.338;2023-06-22T04:43:34;14.87;;;13.40;;
6878;SDS011;3478;51.462;7.338;2023-06-22T04:48:38;20.67;;;13.97;;
6878;SDS011;3478;51.462;7.338;2023-06-22T04:53:40;19.03;;;14.83;;
6878;SDS011;3478;51.462;7.338;2023-06-22T04:58:42;16.27;;;14.53;;
6878;SDS011;3478;51.462;7.338;2023-06-22T05:03:45;15.63;;;13.03;;
6878;SDS011;3478;51.462;7.338;2023-06-22T05:08:47;14.20;;;12.87;;
6878;SDS011;3478;51.462;7.338;2023-06-22T05:13:49;14.30;;;12.80;;
6878;SDS011;3478;51.462;7.338;2023-06-22T05:18:53;12.73;;;11.50;;
6878;SDS011;3478;51.462;7.338;2023-06-22T05:23:56;14.40;;;13.10;;
6878;SDS011;3478;51.462;7.338;2023-06-22T05:29:00;12.67;;;11.37;;
6878;SDS011;3478;51.462;7.338;2023-06-22T05:34:06;14.50;;;11.13;;
6878;SDS011;3478;51.462;7.338;2023-06-22T05:39:10;13.37;;;12.27;;
6878;SDS011;3478;51.462;7.338;2023-06-22T05:44:13;20.13;;;12.17;;
6878;SDS011;3478;51.462;7.338;2023-06-22T05:49:16;12.00;;;10.80;;
6878;SDS011;3478;51.462;7.338;2023-06-22T05:54:18;13.63;;;10.10;;
6878;SDS011;3478;51.462;7.338;2023-06-22T05:59:20;11.83;;;10.63;;
6878;SDS011;3478;51.462;7.338;2023-06-22T06:04:24;15.70;;;11.03;;
6878;SDS011;3478;51.462;7.338;2023-06-22T06:09:25;13.63;;;11.83;;
6878;SDS011;3478;51.462;7.338;2023-06-22T06:14:27;12.30;;;11.20;;
6878;SDS011;3478;51.462;7.338;2023-06-22T06:19:31;12.20;;;11.00;;
6878;SDS011;3478;51.462;7.338;2023-06-22T06:24:33;13.23;;;11.40;;
6878;SDS011;3478;51.462;7.338;2023-06-22T06:29:35;12.47;;;11.40;;
6878;SDS011;3478;51.462;7.338;2023-06-22T06:34:38;13.07;;;11.03;;
6878;SDS011;3478;51.462;7.338;2023-06-22T06:39:40;11.77;;;10.77;;
6878;SDS011;3478;51.462;7.338;2023-06-22T06:44:42;10.07;;;9.07;;
6878;SDS011;3478;51.462;7.338;2023-06-22T06:49:46;12.07;;;10.67;;
6878;SDS011;3478;51.462;7.338;2023-06-22T06:54:48;11.83;;;10.63;;
6878;SDS011;3478;51.462;7.338;2023-06-22T06:59:51;12.90;;;11.80;;
6878;SDS011;3478;51.462;7.338;2023-06-22T07:04:55;12.77;;;10.90;;
6878;SDS011;3478;51.462;7.338;2023-06-22T07:09:57;11.30;;;10.20;;
6878;SDS011;3478;51.462;7.338;2023-06-22T07:15:01;13.93;;;12.53;;
6878;SDS011;3478;51.462;7.338;2023-06-22T07:20:06;14.57;;;11.33;;
6878;SDS011;3478;51.462;7.338;2023-06-22T07:25:10;12.20;;;10.90;;
6878;SDS011;3478;51.462;7.338;2023-06-22T07:30:14;13.60;;;12.40;;
6878;SDS011;3478;51.462;7.338;2023-06-22T07:35:17;13.07;;;11.87;;
6878;SDS011;3478;51.462;7.338;2023-06-22T07:40:19;13.70;;;12.40;;
6878;SDS011;3478;51.462;7.338;2023-06-22T07:45:21;15.53;;;13.40;;
6878;SDS011;3478;51.462;7.338;2023-06-22T07:50:25;16.60;;;14.87;;
6878;SDS011;3478;51.462;7.338;2023-06-22T07:55:27;18.57;;;16.00;;
6878;SDS011;3478;51.462;7.338;2023-06-22T08:00:29;17.13;;;15.33;;
6878;SDS011;3478;51.462;7.338;2023-06-22T08:05:32;16.80;;;15.20;;
6878;SDS011;3478;51.462;7.338;2023-06-22T08:10:34;20.70;;;17.67;;
6878;SDS011;3478;51.462;7.338;2023-06-22T08:15:36;21.97;;;17.40;;
6878;SDS011;3478;51.462;7.338;2023-06-22T08:20:39;23.47;;;17.47;;
6878;SDS011;3478;51.462;7.338;2023-06-22T08:25:41;21.40;;;17.63;;
6878;SDS011;3478;51.462;7.338;2023-06-22T08:30:43;21.57;;;17.87;;
6878;SDS011;3478;51.462;7.338;2023-06-22T08:35:47;29.30;;;19.40;;
6878;SDS011;3478;51.462;7.338;2023-06-22T08:40:50;23.50;;;19.10;;
6878;SDS011;3478;51.462;7.338;2023-06-22T08:45:52;21.80;;;19.47;;
6878;SDS011;3478;51.462;7.338;2023-06-22T08:50:55;20.67;;;18.60;;
6878;SDS011;3478;51.462;7.338;2023-06-22T08:55:57;20.17;;;18.27;;
6878;SDS011;3478;51.462;7.338;2023-06-22T09:00:59;18.83;;;17.17;;
6878;SDS011;3478;51.462;7.338;2023-06-22T09:06:03;15.70;;;14.10;;
6878;SDS011;3478;51.462;7.338;2023-06-22T09:11:05;13.20;;;12.10;;
6878;SDS011;3478;51.462;7.338;2023-06-22T09:16:07;11.10;;;10.20;;
6878;SDS011;3478;51.462;7.338;2023-06-22T09:21:11;9.07;;;8.37;;
6878;SDS011;3478;51.462;7.338;2023-06-22T09:26:13;9.70;;;8.80;;
6878;SDS011;3478;51.462;7.338;2023-06-22T09:31:15;9.37;;;8.60;;
6878;SDS011;3478;51.462;7.338;2023-06-22T09:36:19;9.67;;;8.93;;
6878;SDS011;3478;51.462;7.338;2023-06-22T09:41:21;9.03;;;8.20;;
6878;SDS011;3478;51.462;7.338;2023-06-22T09:46:29;9.23;;;8.63;;
6878;SDS011;3478;51.462;7.338;2023-06-22T09:51:32;7.67;;;7.17;;
6878;SDS011;3478;51.462;7.338;2023-06-22T09:56:34;8.33;;;7.63;;
6878;SDS011;3478;51.462;7.338;2023-06-22T10:01:37;8.13;;;7.43;;
6878;SDS011;3478;51.462;7.338;2023-06-22T10:06:40;7.50;;;6.90;;
6878;SDS011;3478;51.462;7.338;2023-06-22T10:11:42;7.73;;;7.23;;
6878;SDS011;3478;51.462;7.338;2023-06-22T10:16:44;8.93;;;8.10;;
6878;SDS011;3478;51.462;7.338;2023-06-22T10:21:48;8.90;;;8.23;;
6878;SDS011;3478;51.462;7.338;2023-06-22T10:26:49;7.97;;;7.50;;
6878;SDS011;3478;51.462;7.338;2023-06-22T10:31:51;9.40;;;8.63;;
6878;SDS011;3478;51.462;7.338;2023-06-22T10:36:54;10.63;;;9.93;;
6878;SDS011;3478;51.462;7.338;2023-06-22T10:41:56;8.67;;;8.07;;
6878;SDS011;3478;51.462;7.338;2023-06-22T10:46:58;9.57;;;8.77;;
6878;SDS011;3478;51.462;7.338;2023-06-22T10:52:02;8.80;;;8.07;;
6878;SDS011;3478;51.462;7.338;2023-06-22T10:57:04;7.90;;;7.40;;
6878;SDS011;3478;51.462;7.338;2023-06-22T11:02:06;9.97;;;9.03;;
6878;SDS011;3478;51.462;7.338;2023-06-22T11:07:10;8.90;;;8.20;;
6878;SDS011;3478;51.462;7.338;2023-06-22T11:12:12;9.40;;;8.60;;
6878;SDS011;3478;51.462;7.338;2023-06-22T11:17:14;9.17;;;8.37;;
6878;SDS011;3478;51.462;7.338;2023-06-22T11:22:17;9.13;;;8.50;;
6878;SDS011;3478;51.462;7.338;2023-06-22T11:27:19;9.03;;;8.33;;
6878;SDS011;3478;51.462;7.338;2023-06-22T11:32:21;12.93;;;10.90;;
6878;SDS011;3478;51.462;7.338;2023-06-22T11:37:24;12.53;;;11.30;;
6878;SDS011;3478;51.462;7.338;2023-06-22T11:42:26;11.27;;;9.50;;
6878;SDS011;3478;51.462;7.338;2023-06-22T11:47:29;12.70;;;11.60;;
6878;SDS011;3478;51.462;7.338;2023-06-22T11:52:32;12.80;;;11.50;;
6878;SDS011;3478;51.462;7.338;2023-06-22T11:57:36;12.77;;;11.40;;
6878;SDS011;3478;51.462;7.338;2023-06-22T12:02:38;13.20;;;11.80;;
6878;SDS011;3478;51.462;7.338;2023-06-22T12:07:41;14.60;;;12.83;;
6878;SDS011;3478;51.462;7.338;2023-06-22T12:12:43;15.17;;;13.13;;
6878;SDS011;3478;51.462;7.338;2023-06-22T12:17:45;13.17;;;11.87;;
6878;SDS011;3478;51.462;7.338;2023-06-22T12:22:49;14.80;;;13.30;;
6878;SDS011;3478;51.462;7.338;2023-06-22T12:27:52;14.53;;;13.17;;
6878;SDS011;3478;51.462;7.338;2023-06-22T12:32:55;24.63;;;13.73;;
6878;SDS011;3478;51.462;7.338;2023-06-22T12:37:58;17.83;;;15.20;;
6878;SDS011;3478;51.462;7.338;2023-06-22T12:43:00;14.97;;;13.40;;
6878;SDS011;3478;51.462;7.338;2023-06-22T12:48:02;15.80;;;14.20;;
6878;SDS011;3478;51.462;7.338;2023-06-22T12:53:06;14.67;;;13.10;;
6878;SDS011;3478;51.462;7.338;2023-06-22T12:58:08;14.40;;;13.00;;
6878;SDS011;3478;51.462;7.338;2023-06-22T13:03:10;15.87;;;14.27;;
6878;SDS011;3478;51.462;7.338;2023-06-22T13:08:13;17.60;;;15.70;;
6878;SDS011;3478;51.462;7.338;2023-06-22T13:13:15;16.97;;;15.27;;
6878;SDS011;3478;51.462;7.338;2023-06-22T13:18:17;17.13;;;15.30;;
6878;SDS011;3478;51.462;7.338;2023-06-22T13:23:21;14.90;;;13.50;;
6878;SDS011;3478;51.462;7.338;2023-06-22T13:28:23;14.90;;;13.50;;
6878;SDS011;3478;51.462;7.338;2023-06-22T13:33:25;13.70;;;12.40;;
6878;SDS011;3478;51.462;7.338;2023-06-22T13:38:28;14.83;;;13.43;;
6878;SDS011;3478;51.462;7.338;2023-06-22T13:43:31;16.87;;;15.40;;
6878;SDS011;3478;51.462;7.338;2023-06-22T13:48:33;16.83;;;15.23;;
6878;SDS011;3478;51.462;7.338;2023-06-22T13:53:36;16.47;;;14.77;;
6878;SDS011;3478;51.462;7.338;2023-06-22T13:58:38;14.30;;;13.00;;
6878;SDS011;3478;51.462;7.338;2023-06-22T14:03:40;15.50;;;13.80;;
6878;SDS011;3478;51.462;7.338;2023-06-22T14:08:43;16.20;;;14.50;;
6878;SDS011;3478;51.462;7.338;2023-06-22T14:13:45;15.00;;;13.60;;
6878;SDS011;3478;51.462;7.338;2023-06-22T14:18:47;15.00;;;13.40;;
6878;SDS011;3478;51.462;7.338;2023-06-22T14:23:50;14.60;;;13.30;;
6878;SDS011;3478;51.462;7.338;2023-06-22T14:28:52;13.07;;;11.73;;
6878;SDS011;3478;51.462;7.338;2023-06-22T14:33:54;13.23;;;12.03;;
6878;SDS011;3478;51.462;7.338;2023-06-22T14:38:58;13.67;;;12.40;;
6878;SDS011;3478;51.462;7.338;2023-06-22T14:44:00;13.47;;;12.10;;
6878;SDS011;3478;51.462;7.338;2023-06-22T14:49:02;14.07;;;12.67;;
6878;SDS011;3478;51.462;7.338;2023-06-22T14:54:05;14.23;;;12.93;;
6878;SDS011;3478;51.462;7.338;2023-06-22T14:59:07;14.43;;;13.13;;
6878;SDS011;3478;51.462;7.338;2023-06-22T15:04:09;14.73;;;13.37;;
6878;SDS011;3478;51.462;7.338;2023-06-22T15:09:13;16.37;;;14.67;;
6878;SDS011;3478;51.462;7.338;2023-06-22T15:14:15;15.50;;;14.10;;
6878;SDS011;3478;51.462;7.338;2023-06-22T15:19:18;16.30;;;14.70;;
6878;SDS011;3478;51.462;7.338;2023-06-22T15:24:21;17.00;;;15.20;;
6878;SDS011;3478;51.462;7.338;2023-06-22T15:29:23;18.27;;;16.40;;
6878;SDS011;3478;51.462;7.338;2023-06-22T15:34:25;19.60;;;17.13;;
6878;SDS011;3478;51.462;7.338;2023-06-22T15:39:28;18.57;;;16.60;;
6878;SDS011;3478;51.462;7.338;2023-06-22T15:44:30;18.87;;;17.03;;
6878;SDS011;3478;51.462;7.338;2023-06-22T15:49:32;23.00;;;19.30;;
6878;SDS011;3478;51.462;7.338;2023-06-22T15:54:35;19.87;;;17.77;;
6878;SDS011;3478;51.462;7.338;2023-06-22T15:59:37;21.60;;;19.33;;
6878;SDS011;3478;51.462;7.338;2023-06-22T16:04:39;25.97;;;22.40;;
6878;SDS011;3478;51.462;7.338;2023-06-22T16:09:42;24.63;;;22.17;;
6878;SDS011;3478;51.462;7.338;2023-06-22T16:14:44;24.83;;;22.27;;
6878;SDS011;3478;51.462;7.338;2023-06-22T16:19:46;30.07;;;24.77;;
6878;SDS011;3478;51.462;7.338;2023-06-22T16:24:50;28.47;;;24.50;;
6878;SDS011;3478;51.462;7.338;2023-06-22T16:29:51;28.70;;;23.03;;
6878;SDS011;3478;51.462;7.338;2023-06-22T16:34:53;24.53;;;20.37;;
6878;SDS011;3478;51.462;7.338;2023-06-22T16:39:57;21.47;;;18.20;;
6878;SDS011;3478;51.462;7.338;2023-06-22T16:44:58;25.50;;;19.67;;
6878;SDS011;3478;51.462;7.338;2023-06-22T16:50:01;34.63;;;19.63;;
6878;SDS011;3478;51.462;7.338;2023-06-22T16:55:04;24.13;;;20.87;;
6878;SDS011;3478;51.462;7.338;2023-06-22T17:00:08;23.50;;;21.00;;
6878;SDS011;3478;51.462;7.338;2023-06-22T17:05:12;22.70;;;20.50;;
6878;SDS011;3478;51.462;7.338;2023-06-22T17:10:16;26.97;;;22.40;;
6878;SDS011;3478;51.462;7.338;2023-06-22T17:15:21;26.67;;;23.93;;
6878;SDS011;3478;51.462;7.338;2023-06-22T17:20:23;26.80;;;23.17;;
6878;SDS011;3478;51.462;7.338;2023-06-22T17:25:27;25.17;;;21.87;;
6878;SDS011;3478;51.462;7.338;2023-06-22T17:30:30;26.40;;;21.67;;
6878;SDS011;3478;51.462;7.338;2023-06-22T17:35:31;24.27;;;21.50;;
6878;SDS011;3478;51.462;7.338;2023-06-22T17:40:36;20.87;;;18.77;;
6878;SDS011;3478;51.462;7.338;2023-06-22T17:45:41;20.67;;;18.53;;
6878;SDS011;3478;51.462;7.338;2023-06-22T17:50:44;20.93;;;18.73;;
6878;SDS011;3478;51.462;7.338;2023-06-22T17:55:48;24.67;;;19.73;;
6878;SDS011;3478;51.462;7.338;2023-06-22T18:00:53;21.87;;;19.47;;
6878;SDS011;3478;51.462;7.338;2023-06-22T18:05:55;22.13;;;19.93;;
6878;SDS011;3478;51.462;7.338;2023-06-22T18:10:59;21.77;;;19.47;;
6878;SDS011;3478;51.462;7.338;2023-06-22T18:16:05;23.27;;;20.80;;
6878;SDS011;3478;51.462;7.338;2023-06-22T18:21:07;25.63;;;22.83;;
6878;SDS011;3478;51.462;7.338;2023-06-22T18:26:11;26.20;;;23.50;;
6878;SDS011;3478;51.462;7.338;2023-06-22T18:31:14;24.53;;;22.03;;
6878;SDS011;3478;51.462;7.338;2023-06-22T18:36:24;27.30;;;24.40;;
6878;SDS011;3478;51.462;7.338;2023-06-22T18:41:34;30.33;;;27.20;;
6878;SDS011;3478;51.462;7.338;2023-06-22T18:46:38;30.73;;;27.40;;
6878;SDS011;3478;51.462;7.338;2023-06-22T18:51:50;33.87;;;30.37;;
6878;SDS011;3478;51.462;7.338;2023-06-22T18:56:55;31.50;;;28.40;;
6878;SDS011;3478;51.462;7.338;2023-06-22T19:01:59;27.33;;;24.50;;
6878;SDS011;3478;51.462;7.338;2023-06-22T19:07:01;22.00;;;19.80;;
6878;SDS011;3478;51.462;7.338;2023-06-22T19:12:17;17.27;;;15.67;;
6878;SDS011;3478;51.462;7.338;2023-06-22T19:17:25;17.77;;;15.70;;
6878;SDS011;3478;51.462;7.338;2023-06-22T19:22:42;13.97;;;12.60;;
6878;SDS011;3478;51.462;7.338;2023-06-22T19:27:47;9.30;;;8.00;;
6878;SDS011;3478;51.462;7.338;2023-06-22T19:32:52;5.67;;;5.17;;
6878;SDS011;3478;51.462;7.338;2023-06-22T19:37:56;4.90;;;4.50;;
6878;SDS011;3478;51.462;7.338;2023-06-22T19:42:59;5.60;;;3.10;;
6878;SDS011;3478;51.462;7.338;2023-06-22T19:48:01;3.20;;;2.63;;
6878;SDS011;3478;51.462;7.338;2023-06-22T19:53:03;7.60;;;3.63;;
6878;SDS011;3478;51.462;7.338;2023-06-22T19:58:11;4.53;;;3.83;;
6878;SDS011;3478;51.462;7.338;2023-06-22T20:03:15;4.83;;;4.43;;
6878;SDS011;3478;51.462;7.338;2023-06-22T20:08:19;11.47;;;9.00;;
6878;SDS011;3478;51.462;7.338;2023-06-22T20:13:23;13.53;;;11.73;;
6878;SDS011;3478;51.462;7.338;2023-06-22T20:18:25;16.17;;;13.33;;
6878;SDS011;3478;51.462;7.338;2023-06-22T20:23:28;16.13;;;14.50;;
6878;SDS011;3478;51.462;7.338;2023-06-22T20:28:31;15.33;;;13.73;;
6878;SDS011;3478;51.462;7.338;2023-06-22T20:33:34;13.53;;;12.23;;
6878;SDS011;3478;51.462;7.338;2023-06-22T20:38:36;15.50;;;13.93;;
6878;SDS011;3478;51.462;7.338;2023-06-22T20:43:39;20.23;;;16.73;;
6878;SDS011;3478;51.462;7.338;2023-06-22T20:48:41;25.40;;;21.73;;
6878;SDS011;3478;51.462;7.338;2023-06-22T20:53:43;29.70;;;23.10;;
6878;SDS011;3478;51.462;7.338;2023-06-22T20:58:46;16.73;;;15.13;;
6878;SDS011;3478;51.462;7.338;2023-06-22T21:03:48;5.27;;;4.87;;
6878;SDS011;3478;51.462;7.338;2023-06-22T21:08:50;7.93;;;1.60;;
6878;SDS011;3478;51.462;7.338;2023-06-22T21:13:54;1.47;;;1.00;;
6878;SDS011;3478;51.462;7.338;2023-06-22T21:18:55;1.60;;;1.50;;
6878;SDS011;3478;51.462;7.338;2023-06-22T21:23:57;2.10;;;1.20;;
6878;SDS011;3478;51.462;7.338;2023-06-22T21:29:01;0.77;;;0.70;;
6878;SDS011;3478;51.462;7.338;2023-06-22T21:34:03;0.60;;;0.40;;
6878;SDS011;3478;51.462;7.338;2023-06-22T21:39:04;1.00;;;0.80;;
6878;SDS011;3478;51.462;7.338;2023-06-22T21:44:08;1.87;;;0.40;;
6878;SDS011;3478;51.462;7.338;2023-06-22T21:49:10;2.80;;;0.57;;
6878;SDS011;3478;51.462;7.338;2023-06-22T21:54:11;0.63;;;0.30;;
6878;SDS011;3478;51.462;7.338;2023-06-22T21:59:16;1.53;;;0.40;;
6878;SDS011;3478;51.462;7.338;2023-06-22T22:04:18;1.27;;;1.00;;
6878;SDS011;3478;51.462;7.338;2023-06-22T22:09:22;2.00;;;1.90;;
6878;SDS011;3478;51.462;7.338;2023-06-22T22:14:25;2.70;;;2.50;;
6878;SDS011;3478;51.462;7.338;2023-06-22T22:19:27;3.20;;;3.00;;
6878;SDS011;3478;51.462;7.338;2023-06-22T22:24:29;5.93;;;3.90;;
6878;SDS011;3478;51.462;7.338;2023-06-22T22:29:32;3.43;;;3.23;;
6878;SDS011;3478;51.462;7.338;2023-06-22T22:34:34;5.20;;;4.70;;
6878;SDS011;3478;51.462;7.338;2023-06-22T22:39:36;5.20;;;4.80;;
6878;SDS011;3478;51.462;7.338;2023-06-22T22:44:40;4.80;;;4.50;;
6878;SDS011;3478;51.462;7.338;2023-06-22T22:49:42;4.97;;;4.57;;
6878;SDS011;3478;51.462;7.338;2023-06-22T22:54:43;4.60;;;4.20;;
6878;SDS011;3478;51.462;7.338;2023-06-22T22:59:47;5.10;;;4.70;;
6878;SDS011;3478;51.462;7.338;2023-06-22T23:04:53;5.63;;;5.23;;
6878;SDS011;3478;51.462;7.338;2023-06-22T23:09:55;5.20;;;4.90;;
6878;SDS011;3478;51.462;7.338;2023-06-22T23:14:59;5.80;;;5.30;;
6878;SDS011;3478;51.462;7.338;2023-06-22T23:20:02;4.97;;;4.67;;
6878;SDS011;3478;51.462;7.338;2023-06-22T23:25:05;5.23;;;4.93;;
6878;SDS011;3478;51.462;7.338;2023-06-22T23:30:11;6.00;;;5.60;;
6878;SDS011;3478;51.462;7.338;2023-06-22T23:35:13;6.00;;;5.47;;
6878;SDS011;3478;51.462;7.338;2023-06-22T23:40:15;5.83;;;5.43;;
6878;SDS011;3478;51.462;7.338;2023-06-22T23:45:19;5.90;;;5.50;;
6878;SDS011;3478;51.462;7.338;2023-06-22T23:50:22;7.10;;;5.90;;
6878;SDS011;3478;51.462;7.338;2023-06-22T23:55:23;5.47;;;5.17;;
